sensor_id;sensor_type;location;lat;lon;timestamp;temperature;humidity
15296;DHT22;7749;49.964;7.890;2024-03-29T00:01:36;7.00;99.90
15296;DHT22;7749;49.964;7.890;2024-03-29T00:04:02;7.00;99.90
15296;DHT22;7749;49.964;7.890;2024-03-29T00:06:28;7.10;99.90
15296;DHT22;7749;49.964;7.890;2024-03-29T00:08:55;7.10;99.90
15296;DHT22;7749;49.964;7.890;2024-03-29T00:11:21;7.10;99.90
15296;DHT22;7749;49.964;7.890;2024-03-29T00:13:47;7.10;99.90
15296;DHT22;7749;49.964;7.890;2024-03-29T00:16:14;7.20;99.90
15296;DHT22;7749;49.964;7.890;2024-03-29T00:18:40;7.20;99.90
15296;DHT22;7749;49.964;7.890;2024-03-29T00:21:06;7.20;99.90
15296;DHT22;7749;49.964;7.890;2024-03-29T00:23:33;7.30;99.90
15296;DHT22;7749;49.964;7.890;2024-03-29T00:25:59;7.40;99.90
15296;DHT22;7749;49.964;7.890;2024-03-29T00:28:26;7.40;99.90
15296;DHT22;7749;49.964;7.890;2024-03-29T00:30:52;7.40;99.90
15296;DHT22;7749;49.964;7.890;2024-03-29T00:33:18;7.40;99.90
15296;DHT22;7749;49.964;7.890;2024-03-29T00:35:45;7.50;99.90
15296;DHT22;7749;49.964;7.890;2024-03-29T00:38:11;7.50;99.90
15296;DHT22;7749;49.964;7.890;2024-03-29T00:40:38;7.50;99.90
15296;DHT22;7749;49.964;7.890;2024-03-29T00:43:04;7.50;99.90
15296;DHT22;7749;49.964;7.890;2024-03-29T00:45:30;7.50;99.90
15296;DHT22;7749;49.964;7.890;2024-03-29T00:47:57;7.50;99.90
15296;DHT22;7749;49.964;7.890;2024-03-29T00:50:23;7.50;99.90
15296;DHT22;7749;49.964;7.890;2024-03-29T00:52:49;7.50;99.90
15296;DHT22;7749;49.964;7.890;2024-03-29T00:55:16;7.50;99.90
15296;DHT22;7749;49.964;7.890;2024-03-29T00:57:43;7.50;99.90
15296;DHT22;7749;49.964;7.890;2024-03-29T01:00:10;7.60;99.90
15296;DHT22;7749;49.964;7.890;2024-03-29T01:02:36;7.60;99.90
15296;DHT22;7749;49.964;7.890;2024-03-29T01:05:03;7.70;99.90
15296;DHT22;7749;49.964;7.890;2024-03-29T01:07:30;7.70;99.90
15296;DHT22;7749;49.964;7.890;2024-03-29T01:09:56;7.60;99.90
15296;DHT22;7749;49.964;7.890;2024-03-29T01:12:23;7.70;99.90
15296;DHT22;7749;49.964;7.890;2024-03-29T01:14:49;7.70;99.90
15296;DHT22;7749;49.964;7.890;2024-03-29T01:17:15;7.70;99.90
15296;DHT22;7749;49.964;7.890;2024-03-29T01:19:42;7.70;99.90
15296;DHT22;7749;49.964;7.890;2024-03-29T01:22:08;7.70;99.90
15296;DHT22;7749;49.964;7.890;2024-03-29T01:24:34;7.70;99.90
15296;DHT22;7749;49.964;7.890;2024-03-29T01:27:01;7.70;99.90
15296;DHT22;7749;49.964;7.890;2024-03-29T01:29:27;7.80;99.90
15296;DHT22;7749;49.964;7.890;2024-03-29T01:31:53;7.80;99.90
15296;DHT22;7749;49.964;7.890;2024-03-29T01:34:20;7.70;99.90
15296;DHT22;7749;49.964;7.890;2024-03-29T01:36:46;7.70;99.90
15296;DHT22;7749;49.964;7.890;2024-03-29T01:39:13;7.60;99.90
15296;DHT22;7749;49.964;7.890;2024-03-29T01:41:41;7.60;99.90
15296;DHT22;7749;49.964;7.890;2024-03-29T01:44:08;7.50;99.90
15296;DHT22;7749;49.964;7.890;2024-03-29T01:46:36;7.50;99.90
15296;DHT22;7749;49.964;7.890;2024-03-29T01:49:04;7.50;99.90
15296;DHT22;7749;49.964;7.890;2024-03-29T01:51:34;7.50;99.90
15296;DHT22;7749;49.964;7.890;2024-03-29T01:54:01;7.50;99.90
15296;DHT22;7749;49.964;7.890;2024-03-29T01:56:29;7.60;99.90
15296;DHT22;7749;49.964;7.890;2024-03-29T01:58:58;7.60;99.90
15296;DHT22;7749;49.964;7.890;2024-03-29T02:01:26;7.70;99.90
15296;DHT22;7749;49.964;7.890;2024-03-29T02:03:54;7.70;98.90
15296;DHT22;7749;49.964;7.890;2024-03-29T02:06:22;7.80;99.00
15296;DHT22;7749;49.964;7.890;2024-03-29T02:08:53;7.80;97.00
15296;DHT22;7749;49.964;7.890;2024-03-29T02:11:20;7.90;96.40
15296;DHT22;7749;49.964;7.890;2024-03-29T02:13:48;7.90;96.40
15296;DHT22;7749;49.964;7.890;2024-03-29T02:16:15;7.90;95.60
15296;DHT22;7749;49.964;7.890;2024-03-29T02:18:41;7.90;93.50
15296;DHT22;7749;49.964;7.890;2024-03-29T02:21:08;8.00;92.60
15296;DHT22;7749;49.964;7.890;2024-03-29T02:23:37;8.00;91.90
15296;DHT22;7749;49.964;7.890;2024-03-29T02:26:06;8.10;91.20
15296;DHT22;7749;49.964;7.890;2024-03-29T02:28:33;8.10;90.50
15296;DHT22;7749;49.964;7.890;2024-03-29T02:30:59;8.10;90.00
15296;DHT22;7749;49.964;7.890;2024-03-29T02:33:26;8.20;94.00
15296;DHT22;7749;49.964;7.890;2024-03-29T02:35:52;8.20;94.50
15296;DHT22;7749;49.964;7.890;2024-03-29T02:38:18;8.20;97.60
15296;DHT22;7749;49.964;7.890;2024-03-29T02:40:45;8.10;99.90
15296;DHT22;7749;49.964;7.890;2024-03-29T02:43:11;8.20;99.90
15296;DHT22;7749;49.964;7.890;2024-03-29T02:45:38;8.20;99.90
15296;DHT22;7749;49.964;7.890;2024-03-29T02:48:04;8.20;99.90
15296;DHT22;7749;49.964;7.890;2024-03-29T02:50:31;8.20;99.90
15296;DHT22;7749;49.964;7.890;2024-03-29T02:52:58;8.20;99.90
15296;DHT22;7749;49.964;7.890;2024-03-29T02:55:24;8.10;99.90
15296;DHT22;7749;49.964;7.890;2024-03-29T02:57:50;8.10;99.90
15296;DHT22;7749;49.964;7.890;2024-03-29T03:00:17;8.10;99.90
15296;DHT22;7749;49.964;7.890;2024-03-29T03:02:43;8.20;99.90
15296;DHT22;7749;49.964;7.890;2024-03-29T03:05:09;8.20;99.90
15296;DHT22;7749;49.964;7.890;2024-03-29T03:07:36;8.20;99.90
15296;DHT22;7749;49.964;7.890;2024-03-29T03:10:21;8.10;99.90
15296;DHT22;7749;49.964;7.890;2024-03-29T03:13:06;8.20;99.90
15296;DHT22;7749;49.964;7.890;2024-03-29T03:15:32;8.20;99.90
15296;DHT22;7749;49.964;7.890;2024-03-29T03:17:59;8.20;99.90
15296;DHT22;7749;49.964;7.890;2024-03-29T03:20:25;8.20;99.90
15296;DHT22;7749;49.964;7.890;2024-03-29T03:22:56;8.20;99.90
15296;DHT22;7749;49.964;7.890;2024-03-29T03:25:25;8.30;93.60
15296;DHT22;7749;49.964;7.890;2024-03-29T03:27:51;8.40;91.60
15296;DHT22;7749;49.964;7.890;2024-03-29T03:30:17;8.50;91.80
15296;DHT22;7749;49.964;7.890;2024-03-29T03:32:44;8.40;92.90
15296;DHT22;7749;49.964;7.890;2024-03-29T03:35:10;8.40;97.00
15296;DHT22;7749;49.964;7.890;2024-03-29T03:37:37;8.40;94.90
15296;DHT22;7749;49.964;7.890;2024-03-29T03:40:03;8.40;94.20
15296;DHT22;7749;49.964;7.890;2024-03-29T03:42:30;8.40;99.80
15296;DHT22;7749;49.964;7.890;2024-03-29T03:44:56;8.40;99.10
15296;DHT22;7749;49.964;7.890;2024-03-29T03:47:23;8.40;99.90
15296;DHT22;7749;49.964;7.890;2024-03-29T03:49:49;8.40;99.90
15296;DHT22;7749;49.964;7.890;2024-03-29T03:52:15;8.40;99.90
15296;DHT22;7749;49.964;7.890;2024-03-29T03:54:42;8.40;99.90
15296;DHT22;7749;49.964;7.890;2024-03-29T03:57:08;8.40;99.90
15296;DHT22;7749;49.964;7.890;2024-03-29T03:59:34;8.30;99.90
15296;DHT22;7749;49.964;7.890;2024-03-29T04:02:01;8.40;99.90
15296;DHT22;7749;49.964;7.890;2024-03-29T04:04:27;8.30;99.90
15296;DHT22;7749;49.964;7.890;2024-03-29T04:06:53;8.30;99.90
15296;DHT22;7749;49.964;7.890;2024-03-29T04:09:20;8.30;99.90
15296;DHT22;7749;49.964;7.890;2024-03-29T04:11:46;8.30;99.90
15296;DHT22;7749;49.964;7.890;2024-03-29T04:14:12;8.20;99.90
15296;DHT22;7749;49.964;7.890;2024-03-29T04:16:39;8.30;99.90
15296;DHT22;7749;49.964;7.890;2024-03-29T04:19:05;8.20;99.90
15296;DHT22;7749;49.964;7.890;2024-03-29T04:21:32;8.20;99.90
15296;DHT22;7749;49.964;7.890;2024-03-29T04:23:58;8.20;99.90
15296;DHT22;7749;49.964;7.890;2024-03-29T04:26:25;8.20;99.90
15296;DHT22;7749;49.964;7.890;2024-03-29T04:28:51;8.20;99.90
15296;DHT22;7749;49.964;7.890;2024-03-29T04:31:17;8.20;99.90
15296;DHT22;7749;49.964;7.890;2024-03-29T04:33:44;8.20;99.90
15296;DHT22;7749;49.964;7.890;2024-03-29T04:36:10;8.20;99.90
15296;DHT22;7749;49.964;7.890;2024-03-29T04:38:36;8.20;99.90
15296;DHT22;7749;49.964;7.890;2024-03-29T04:41:03;8.20;99.90
15296;DHT22;7749;49.964;7.890;2024-03-29T04:43:29;8.20;99.90
15296;DHT22;7749;49.964;7.890;2024-03-29T04:46:03;8.10;99.90
15296;DHT22;7749;49.964;7.890;2024-03-29T04:48:30;8.10;99.90
15296;DHT22;7749;49.964;7.890;2024-03-29T04:50:57;8.00;99.90
15296;DHT22;7749;49.964;7.890;2024-03-29T04:53:24;8.10;99.90
15296;DHT22;7749;49.964;7.890;2024-03-29T04:55:54;8.00;99.90
15296;DHT22;7749;49.964;7.890;2024-03-29T04:58:25;8.00;99.90
15296;DHT22;7749;49.964;7.890;2024-03-29T05:00:52;8.00;99.90
15296;DHT22;7749;49.964;7.890;2024-03-29T05:03:19;8.00;99.90
15296;DHT22;7749;49.964;7.890;2024-03-29T05:05:46;8.00;99.90
15296;DHT22;7749;49.964;7.890;2024-03-29T05:08:13;8.10;99.90
15296;DHT22;7749;49.964;7.890;2024-03-29T05:10:40;8.00;99.90
15296;DHT22;7749;49.964;7.890;2024-03-29T05:13:06;8.00;99.90
15296;DHT22;7749;49.964;7.890;2024-03-29T05:15:33;8.00;99.90
15296;DHT22;7749;49.964;7.890;2024-03-29T05:18:00;8.00;99.90
15296;DHT22;7749;49.964;7.890;2024-03-29T05:20:26;8.00;99.90
15296;DHT22;7749;49.964;7.890;2024-03-29T05:22:52;8.00;99.90
15296;DHT22;7749;49.964;7.890;2024-03-29T05:25:18;8.00;99.90
15296;DHT22;7749;49.964;7.890;2024-03-29T05:27:45;8.00;99.90
15296;DHT22;7749;49.964;7.890;2024-03-29T05:30:11;8.00;99.90
15296;DHT22;7749;49.964;7.890;2024-03-29T05:32:39;8.00;99.90
15296;DHT22;7749;49.964;7.890;2024-03-29T05:35:06;8.00;99.90
15296;DHT22;7749;49.964;7.890;2024-03-29T05:37:33;8.00;99.90
15296;DHT22;7749;49.964;7.890;2024-03-29T05:39:59;8.10;99.90
15296;DHT22;7749;49.964;7.890;2024-03-29T05:42:29;8.10;99.90
15296;DHT22;7749;49.964;7.890;2024-03-29T05:44:56;8.10;99.90
15296;DHT22;7749;49.964;7.890;2024-03-29T05:47:22;8.10;99.90
15296;DHT22;7749;49.964;7.890;2024-03-29T05:49:49;8.10;99.90
15296;DHT22;7749;49.964;7.890;2024-03-29T05:52:16;8.10;99.90
15296;DHT22;7749;49.964;7.890;2024-03-29T05:54:43;8.10;99.90
15296;DHT22;7749;49.964;7.890;2024-03-29T05:57:10;8.10;99.90
15296;DHT22;7749;49.964;7.890;2024-03-29T05:59:37;8.10;99.90
15296;DHT22;7749;49.964;7.890;2024-03-29T06:02:04;8.10;99.90
15296;DHT22;7749;49.964;7.890;2024-03-29T06:04:31;8.10;99.90
15296;DHT22;7749;49.964;7.890;2024-03-29T06:07:02;8.20;99.90
15296;DHT22;7749;49.964;7.890;2024-03-29T06:09:29;8.20;99.90
15296;DHT22;7749;49.964;7.890;2024-03-29T06:11:56;8.20;99.90
15296;DHT22;7749;49.964;7.890;2024-03-29T06:14:23;8.20;99.90
15296;DHT22;7749;49.964;7.890;2024-03-29T06:17:08;8.20;99.90
15296;DHT22;7749;49.964;7.890;2024-03-29T06:19:54;8.20;99.90
15296;DHT22;7749;49.964;7.890;2024-03-29T06:22:25;8.20;99.90
15296;DHT22;7749;49.964;7.890;2024-03-29T06:24:56;8.30;99.90
15296;DHT22;7749;49.964;7.890;2024-03-29T06:27:25;8.30;99.90
15296;DHT22;7749;49.964;7.890;2024-03-29T06:29:52;8.20;99.90
15296;DHT22;7749;49.964;7.890;2024-03-29T06:32:18;8.30;99.90
15296;DHT22;7749;49.964;7.890;2024-03-29T06:34:45;8.30;99.90
15296;DHT22;7749;49.964;7.890;2024-03-29T06:37:11;8.40;99.90
15296;DHT22;7749;49.964;7.890;2024-03-29T06:39:38;8.40;99.90
15296;DHT22;7749;49.964;7.890;2024-03-29T06:42:04;8.40;99.90
15296;DHT22;7749;49.964;7.890;2024-03-29T06:44:33;8.40;99.90
15296;DHT22;7749;49.964;7.890;2024-03-29T06:47:00;8.40;99.90
15296;DHT22;7749;49.964;7.890;2024-03-29T06:49:26;8.50;99.90
15296;DHT22;7749;49.964;7.890;2024-03-29T06:51:53;8.50;99.90
15296;DHT22;7749;49.964;7.890;2024-03-29T06:54:25;8.50;99.90
15296;DHT22;7749;49.964;7.890;2024-03-29T06:56:53;8.60;99.90
15296;DHT22;7749;49.964;7.890;2024-03-29T06:59:20;8.70;99.90
15296;DHT22;7749;49.964;7.890;2024-03-29T07:01:47;8.70;99.90
15296;DHT22;7749;49.964;7.890;2024-03-29T07:04:14;8.70;99.90
15296;DHT22;7749;49.964;7.890;2024-03-29T07:06:40;8.80;99.90
15296;DHT22;7749;49.964;7.890;2024-03-29T07:09:08;8.80;99.90
15296;DHT22;7749;49.964;7.890;2024-03-29T07:11:36;8.80;99.90
15296;DHT22;7749;49.964;7.890;2024-03-29T07:14:02;8.80;99.90
15296;DHT22;7749;49.964;7.890;2024-03-29T07:16:28;8.80;99.90
15296;DHT22;7749;49.964;7.890;2024-03-29T07:18:55;8.80;99.90
15296;DHT22;7749;49.964;7.890;2024-03-29T07:21:21;8.90;99.90
15296;DHT22;7749;49.964;7.890;2024-03-29T07:23:48;9.00;99.90
15296;DHT22;7749;49.964;7.890;2024-03-29T07:26:15;9.10;99.90
15296;DHT22;7749;49.964;7.890;2024-03-29T07:28:41;9.10;99.90
15296;DHT22;7749;49.964;7.890;2024-03-29T07:31:08;9.20;99.90
15296;DHT22;7749;49.964;7.890;2024-03-29T07:33:35;9.30;99.90
15296;DHT22;7749;49.964;7.890;2024-03-29T07:36:02;9.40;99.90
15296;DHT22;7749;49.964;7.890;2024-03-29T07:38:29;9.60;99.90
15296;DHT22;7749;49.964;7.890;2024-03-29T07:40:56;9.70;99.90
15296;DHT22;7749;49.964;7.890;2024-03-29T07:43:22;9.70;99.90
15296;DHT22;7749;49.964;7.890;2024-03-29T07:45:49;9.80;99.90
15296;DHT22;7749;49.964;7.890;2024-03-29T07:48:16;9.90;99.90
15296;DHT22;7749;49.964;7.890;2024-03-29T07:50:44;10.00;99.90
15296;DHT22;7749;49.964;7.890;2024-03-29T07:53:10;10.00;99.90
15296;DHT22;7749;49.964;7.890;2024-03-29T07:55:38;10.10;99.90
15296;DHT22;7749;49.964;7.890;2024-03-29T07:58:05;10.10;99.90
15296;DHT22;7749;49.964;7.890;2024-03-29T08:00:32;10.20;99.90
15296;DHT22;7749;49.964;7.890;2024-03-29T08:02:59;10.20;99.90
15296;DHT22;7749;49.964;7.890;2024-03-29T08:05:27;10.20;99.90
15296;DHT22;7749;49.964;7.890;2024-03-29T08:07:53;10.20;99.90
15296;DHT22;7749;49.964;7.890;2024-03-29T08:10:21;10.40;99.90
15296;DHT22;7749;49.964;7.890;2024-03-29T08:12:47;10.40;99.90
15296;DHT22;7749;49.964;7.890;2024-03-29T08:15:14;10.30;99.90
15296;DHT22;7749;49.964;7.890;2024-03-29T08:17:41;10.40;99.90
15296;DHT22;7749;49.964;7.890;2024-03-29T08:20:07;10.40;99.90
15296;DHT22;7749;49.964;7.890;2024-03-29T08:22:34;10.60;99.90
15296;DHT22;7749;49.964;7.890;2024-03-29T08:25:00;10.60;99.90
15296;DHT22;7749;49.964;7.890;2024-03-29T08:27:27;10.60;99.90
15296;DHT22;7749;49.964;7.890;2024-03-29T08:29:54;10.70;99.90
15296;DHT22;7749;49.964;7.890;2024-03-29T08:32:20;10.70;99.90
15296;DHT22;7749;49.964;7.890;2024-03-29T08:34:47;10.60;99.90
15296;DHT22;7749;49.964;7.890;2024-03-29T08:37:13;10.60;99.90
15296;DHT22;7749;49.964;7.890;2024-03-29T08:39:40;10.70;99.90
15296;DHT22;7749;49.964;7.890;2024-03-29T08:42:07;10.70;99.90
15296;DHT22;7749;49.964;7.890;2024-03-29T08:44:36;10.80;99.90
15296;DHT22;7749;49.964;7.890;2024-03-29T08:47:02;10.90;99.90
15296;DHT22;7749;49.964;7.890;2024-03-29T08:49:29;10.90;99.90
15296;DHT22;7749;49.964;7.890;2024-03-29T08:51:56;10.90;99.90
15296;DHT22;7749;49.964;7.890;2024-03-29T08:54:25;10.80;99.90
15296;DHT22;7749;49.964;7.890;2024-03-29T08:56:51;11.00;99.90
15296;DHT22;7749;49.964;7.890;2024-03-29T08:59:18;11.10;99.90
15296;DHT22;7749;49.964;7.890;2024-03-29T09:01:46;11.30;99.90
15296;DHT22;7749;49.964;7.890;2024-03-29T09:04:15;11.50;99.90
15296;DHT22;7749;49.964;7.890;2024-03-29T09:06:42;11.70;99.90
15296;DHT22;7749;49.964;7.890;2024-03-29T09:09:09;11.80;99.90
15296;DHT22;7749;49.964;7.890;2024-03-29T09:11:36;11.80;99.90
15296;DHT22;7749;49.964;7.890;2024-03-29T09:14:02;11.80;99.90
15296;DHT22;7749;49.964;7.890;2024-03-29T09:16:30;12.00;99.90
15296;DHT22;7749;49.964;7.890;2024-03-29T09:18:57;12.10;99.90
15296;DHT22;7749;49.964;7.890;2024-03-29T09:21:23;12.20;99.90
15296;DHT22;7749;49.964;7.890;2024-03-29T09:23:50;12.50;99.90
15296;DHT22;7749;49.964;7.890;2024-03-29T09:26:19;12.70;99.90
15296;DHT22;7749;49.964;7.890;2024-03-29T09:28:45;12.80;99.90
15296;DHT22;7749;49.964;7.890;2024-03-29T09:31:12;12.90;99.90
15296;DHT22;7749;49.964;7.890;2024-03-29T09:33:38;13.30;99.90
15296;DHT22;7749;49.964;7.890;2024-03-29T09:36:05;13.60;99.90
15296;DHT22;7749;49.964;7.890;2024-03-29T09:38:31;13.50;99.90
15296;DHT22;7749;49.964;7.890;2024-03-29T09:41:11;13.20;99.90
15296;DHT22;7749;49.964;7.890;2024-03-29T09:43:42;13.00;99.90
15296;DHT22;7749;49.964;7.890;2024-03-29T09:46:11;13.10;99.90
15296;DHT22;7749;49.964;7.890;2024-03-29T09:48:43;13.20;99.90
15296;DHT22;7749;49.964;7.890;2024-03-29T09:51:12;13.40;99.90
15296;DHT22;7749;49.964;7.890;2024-03-29T09:53:43;13.30;99.90
15296;DHT22;7749;49.964;7.890;2024-03-29T09:56:10;13.30;99.90
15296;DHT22;7749;49.964;7.890;2024-03-29T09:58:37;13.40;99.90
15296;DHT22;7749;49.964;7.890;2024-03-29T10:01:05;13.90;99.90
15296;DHT22;7749;49.964;7.890;2024-03-29T10:03:40;14.30;99.90
15296;DHT22;7749;49.964;7.890;2024-03-29T10:06:07;14.20;96.00
15296;DHT22;7749;49.964;7.890;2024-03-29T10:08:41;13.80;98.40
15296;DHT22;7749;49.964;7.890;2024-03-29T10:11:07;13.40;99.90
15296;DHT22;7749;49.964;7.890;2024-03-29T10:13:37;13.60;99.90
15296;DHT22;7749;49.964;7.890;2024-03-29T10:16:04;13.60;99.90
15296;DHT22;7749;49.964;7.890;2024-03-29T10:18:31;13.80;99.90
15296;DHT22;7749;49.964;7.890;2024-03-29T10:21:04;13.50;99.90
15296;DHT22;7749;49.964;7.890;2024-03-29T10:23:32;13.40;96.80
15296;DHT22;7749;49.964;7.890;2024-03-29T10:25:58;13.30;99.90
15296;DHT22;7749;49.964;7.890;2024-03-29T10:28:30;13.30;99.90
15296;DHT22;7749;49.964;7.890;2024-03-29T10:30:57;13.40;99.90
15296;DHT22;7749;49.964;7.890;2024-03-29T10:33:27;13.40;99.90
15296;DHT22;7749;49.964;7.890;2024-03-29T10:35:55;13.50;99.90
15296;DHT22;7749;49.964;7.890;2024-03-29T10:38:26;13.60;99.90
15296;DHT22;7749;49.964;7.890;2024-03-29T10:40:53;13.70;99.90
15296;DHT22;7749;49.964;7.890;2024-03-29T10:43:20;13.80;99.90
15296;DHT22;7749;49.964;7.890;2024-03-29T10:45:47;13.70;99.90
15296;DHT22;7749;49.964;7.890;2024-03-29T10:48:15;14.00;99.90
15296;DHT22;7749;49.964;7.890;2024-03-29T10:50:43;14.20;99.90
15296;DHT22;7749;49.964;7.890;2024-03-29T10:53:10;14.30;99.90
15296;DHT22;7749;49.964;7.890;2024-03-29T10:55:40;14.10;94.30
15296;DHT22;7749;49.964;7.890;2024-03-29T10:58:11;13.80;95.20
15296;DHT22;7749;49.964;7.890;2024-03-29T11:00:47;13.50;99.90
15296;DHT22;7749;49.964;7.890;2024-03-29T11:03:44;13.20;99.90
15296;DHT22;7749;49.964;7.890;2024-03-29T11:06:13;12.90;99.90
15296;DHT22;7749;49.964;7.890;2024-03-29T11:08:42;12.70;99.90
15296;DHT22;7749;49.964;7.890;2024-03-29T11:11:12;12.50;99.90
15296;DHT22;7749;49.964;7.890;2024-03-29T11:16:14;12.20;99.90
15296;DHT22;7749;49.964;7.890;2024-03-29T11:18:45;12.10;99.90
15296;DHT22;7749;49.964;7.890;2024-03-29T11:21:15;12.00;99.90
15296;DHT22;7749;49.964;7.890;2024-03-29T11:23:52;11.90;99.90
15296;DHT22;7749;49.964;7.890;2024-03-29T11:26:19;11.90;99.90
15296;DHT22;7749;49.964;7.890;2024-03-29T11:28:50;11.90;99.90
15296;DHT22;7749;49.964;7.890;2024-03-29T11:31:18;11.90;99.90
15296;DHT22;7749;49.964;7.890;2024-03-29T11:33:49;11.90;99.90
15296;DHT22;7749;49.964;7.890;2024-03-29T11:36:32;11.90;99.90
15296;DHT22;7749;49.964;7.890;2024-03-29T11:38:58;11.90;99.90
15296;DHT22;7749;49.964;7.890;2024-03-29T11:41:26;12.00;99.90
15296;DHT22;7749;49.964;7.890;2024-03-29T11:43:54;12.10;99.90
15296;DHT22;7749;49.964;7.890;2024-03-29T11:46:21;12.20;99.90
15296;DHT22;7749;49.964;7.890;2024-03-29T11:48:48;12.40;99.90
15296;DHT22;7749;49.964;7.890;2024-03-29T11:51:20;12.40;99.90
15296;DHT22;7749;49.964;7.890;2024-03-29T11:53:48;12.30;99.90
15296;DHT22;7749;49.964;7.890;2024-03-29T11:56:17;12.10;99.90
15296;DHT22;7749;49.964;7.890;2024-03-29T11:58:44;12.10;99.90
15296;DHT22;7749;49.964;7.890;2024-03-29T12:01:11;12.00;99.90
15296;DHT22;7749;49.964;7.890;2024-03-29T12:03:41;11.90;99.90
15296;DHT22;7749;49.964;7.890;2024-03-29T12:06:08;11.90;99.90
15296;DHT22;7749;49.964;7.890;2024-03-29T12:08:39;11.90;99.90
15296;DHT22;7749;49.964;7.890;2024-03-29T12:11:05;11.90;99.90
15296;DHT22;7749;49.964;7.890;2024-03-29T12:13:32;11.80;99.90
15296;DHT22;7749;49.964;7.890;2024-03-29T12:16:00;11.80;99.90
15296;DHT22;7749;49.964;7.890;2024-03-29T12:18:27;11.80;99.90
15296;DHT22;7749;49.964;7.890;2024-03-29T12:20:59;11.70;99.90
15296;DHT22;7749;49.964;7.890;2024-03-29T12:23:26;11.80;99.90
15296;DHT22;7749;49.964;7.890;2024-03-29T12:25:57;11.80;99.90
15296;DHT22;7749;49.964;7.890;2024-03-29T12:28:25;11.90;99.90
15296;DHT22;7749;49.964;7.890;2024-03-29T12:30:52;11.80;99.90
15296;DHT22;7749;49.964;7.890;2024-03-29T12:33:20;11.80;99.90
15296;DHT22;7749;49.964;7.890;2024-03-29T12:35:48;11.70;99.90
15296;DHT22;7749;49.964;7.890;2024-03-29T12:38:16;11.70;99.90
15296;DHT22;7749;49.964;7.890;2024-03-29T12:40:45;11.60;99.90
15296;DHT22;7749;49.964;7.890;2024-03-29T12:43:15;11.70;99.90
15296;DHT22;7749;49.964;7.890;2024-03-29T12:45:45;11.70;99.90
15296;DHT22;7749;49.964;7.890;2024-03-29T12:48:17;11.80;99.90
15296;DHT22;7749;49.964;7.890;2024-03-29T12:50:44;11.80;99.90
15296;DHT22;7749;49.964;7.890;2024-03-29T12:53:13;11.90;99.90
15296;DHT22;7749;49.964;7.890;2024-03-29T12:55:47;11.90;99.90
15296;DHT22;7749;49.964;7.890;2024-03-29T12:58:16;11.90;99.90
15296;DHT22;7749;49.964;7.890;2024-03-29T13:00:44;12.00;99.90
15296;DHT22;7749;49.964;7.890;2024-03-29T13:03:10;12.20;99.90
15296;DHT22;7749;49.964;7.890;2024-03-29T13:05:38;12.40;99.90
15296;DHT22;7749;49.964;7.890;2024-03-29T13:08:09;12.50;99.90
15296;DHT22;7749;49.964;7.890;2024-03-29T13:10:40;12.70;99.90
15296;DHT22;7749;49.964;7.890;2024-03-29T13:13:07;12.80;99.90
15296;DHT22;7749;49.964;7.890;2024-03-29T13:15:35;13.00;99.90
15296;DHT22;7749;49.964;7.890;2024-03-29T13:18:03;13.10;99.90
15296;DHT22;7749;49.964;7.890;2024-03-29T13:20:30;13.30;99.90
15296;DHT22;7749;49.964;7.890;2024-03-29T13:22:58;13.50;99.90
15296;DHT22;7749;49.964;7.890;2024-03-29T13:25:24;13.70;99.90
15296;DHT22;7749;49.964;7.890;2024-03-29T13:27:53;13.80;99.90
15296;DHT22;7749;49.964;7.890;2024-03-29T13:30:22;13.90;99.90
15296;DHT22;7749;49.964;7.890;2024-03-29T13:32:48;13.90;99.90
15296;DHT22;7749;49.964;7.890;2024-03-29T13:35:15;13.90;99.90
15296;DHT22;7749;49.964;7.890;2024-03-29T13:37:43;14.10;99.90
15296;DHT22;7749;49.964;7.890;2024-03-29T13:40:12;14.30;99.90
15296;DHT22;7749;49.964;7.890;2024-03-29T13:42:40;14.20;99.90
15296;DHT22;7749;49.964;7.890;2024-03-29T13:45:08;14.00;99.90
15296;DHT22;7749;49.964;7.890;2024-03-29T13:47:37;13.80;99.90
15296;DHT22;7749;49.964;7.890;2024-03-29T13:50:05;13.70;99.90
15296;DHT22;7749;49.964;7.890;2024-03-29T13:52:31;13.70;99.90
15296;DHT22;7749;49.964;7.890;2024-03-29T13:54:58;13.80;99.90
15296;DHT22;7749;49.964;7.890;2024-03-29T13:57:24;13.80;99.90
15296;DHT22;7749;49.964;7.890;2024-03-29T13:59:51;14.00;99.90
15296;DHT22;7749;49.964;7.890;2024-03-29T14:02:18;14.30;99.90
15296;DHT22;7749;49.964;7.890;2024-03-29T14:04:45;14.40;99.90
15296;DHT22;7749;49.964;7.890;2024-03-29T14:07:13;14.30;99.90
15296;DHT22;7749;49.964;7.890;2024-03-29T14:09:41;14.30;99.90
15296;DHT22;7749;49.964;7.890;2024-03-29T14:12:07;14.20;99.90
15296;DHT22;7749;49.964;7.890;2024-03-29T14:14:34;14.20;99.90
15296;DHT22;7749;49.964;7.890;2024-03-29T14:17:02;14.30;99.90
15296;DHT22;7749;49.964;7.890;2024-03-29T14:19:30;14.40;99.90
15296;DHT22;7749;49.964;7.890;2024-03-29T14:21:57;14.50;99.90
15296;DHT22;7749;49.964;7.890;2024-03-29T14:24:24;14.60;99.90
15296;DHT22;7749;49.964;7.890;2024-03-29T14:26:51;14.70;99.90
15296;DHT22;7749;49.964;7.890;2024-03-29T14:29:18;14.80;99.90
15296;DHT22;7749;49.964;7.890;2024-03-29T14:31:48;14.80;99.90
15296;DHT22;7749;49.964;7.890;2024-03-29T14:34:15;14.80;99.90
15296;DHT22;7749;49.964;7.890;2024-03-29T14:36:41;14.60;99.90
15296;DHT22;7749;49.964;7.890;2024-03-29T14:39:08;14.30;99.90
15296;DHT22;7749;49.964;7.890;2024-03-29T14:41:35;14.30;99.90
15296;DHT22;7749;49.964;7.890;2024-03-29T14:44:03;14.20;99.90
15296;DHT22;7749;49.964;7.890;2024-03-29T14:46:29;14.10;99.90
15296;DHT22;7749;49.964;7.890;2024-03-29T14:48:55;14.10;99.90
15296;DHT22;7749;49.964;7.890;2024-03-29T14:51:22;14.00;99.90
15296;DHT22;7749;49.964;7.890;2024-03-29T14:53:48;14.00;99.90
15296;DHT22;7749;49.964;7.890;2024-03-29T14:56:16;14.00;99.90
15296;DHT22;7749;49.964;7.890;2024-03-29T14:58:43;13.90;99.90
15296;DHT22;7749;49.964;7.890;2024-03-29T15:01:09;13.80;99.90
15296;DHT22;7749;49.964;7.890;2024-03-29T15:03:35;13.70;99.90
15296;DHT22;7749;49.964;7.890;2024-03-29T15:06:02;13.70;99.90
15296;DHT22;7749;49.964;7.890;2024-03-29T15:08:28;13.60;99.90
15296;DHT22;7749;49.964;7.890;2024-03-29T15:11:01;13.70;99.90
15296;DHT22;7749;49.964;7.890;2024-03-29T15:13:28;13.60;99.90
15296;DHT22;7749;49.964;7.890;2024-03-29T15:15:59;13.60;99.90
15296;DHT22;7749;49.964;7.890;2024-03-29T15:18:26;13.70;99.90
15296;DHT22;7749;49.964;7.890;2024-03-29T15:20:57;13.70;99.90
15296;DHT22;7749;49.964;7.890;2024-03-29T15:23:23;13.70;99.90
15296;DHT22;7749;49.964;7.890;2024-03-29T15:25:51;13.70;99.90
15296;DHT22;7749;49.964;7.890;2024-03-29T15:28:19;13.80;99.90
15296;DHT22;7749;49.964;7.890;2024-03-29T15:31:23;13.80;99.90
15296;DHT22;7749;49.964;7.890;2024-03-29T15:33:51;13.70;99.90
15296;DHT22;7749;49.964;7.890;2024-03-29T15:36:18;13.80;99.90
15296;DHT22;7749;49.964;7.890;2024-03-29T15:38:45;13.80;99.90
15296;DHT22;7749;49.964;7.890;2024-03-29T15:41:12;13.90;99.90
15296;DHT22;7749;49.964;7.890;2024-03-29T15:43:38;14.00;99.90
15296;DHT22;7749;49.964;7.890;2024-03-29T15:46:05;13.90;99.90
15296;DHT22;7749;49.964;7.890;2024-03-29T15:48:32;13.80;99.90
15296;DHT22;7749;49.964;7.890;2024-03-29T15:50:58;13.70;99.90
15296;DHT22;7749;49.964;7.890;2024-03-29T15:53:25;13.60;99.90
15296;DHT22;7749;49.964;7.890;2024-03-29T15:55:51;13.50;99.90
15296;DHT22;7749;49.964;7.890;2024-03-29T15:58:18;13.40;99.90
15296;DHT22;7749;49.964;7.890;2024-03-29T16:00:44;13.30;99.90